Autryville, North Carolina
Current Conditions -  °F | °C
As of 1:53 PM on Saturday 25 Oct 2014 (Local Time) from KFAY Reporting Station
Clear Clear  
Wind Chill: 71°   Ceiling: Unl
Heat Index: 71°   Visibility: 10mi
Dew Point: 42°   Wind: 5mph
Humidity: 35%   Direction: NA
Pressure: 29.95"   Gusts: NA
Location:  35°N, 78.64°W
Report Text: KFAY 251753Z AUTO VRB04KT 10SM CLR 22/06 A2995 RMK AO2 SLP137 T02170056 10222 20072 58019
Loading
Personal Weather Stations






























Interactive Weather Map New forecast layout! Learn more

10-Day Weather Forecast

Advertisements
Track Severe Weather on mobile